createdAt,value
2023-02-12T00:00:34.158Z,100.00
2023-02-12T00:03:00.907Z,100.00
2023-02-12T00:05:27.367Z,100.00
2023-02-12T00:07:53.858Z,100.00
2023-02-12T00:10:20.320Z,100.00
2023-02-12T00:12:47.019Z,100.00
2023-02-12T00:15:13.476Z,100.00
2023-02-12T00:17:40.117Z,100.00
2023-02-12T00:20:06.894Z,100.00
2023-02-12T00:22:33.380Z,100.00
2023-02-12T00:24:59.845Z,100.00
2023-02-12T00:27:26.272Z,100.00
2023-02-12T00:29:52.846Z,100.00
2023-02-12T00:32:19.731Z,100.00
2023-02-12T00:34:46.952Z,100.00
2023-02-12T00:37:13.708Z,100.00
2023-02-12T00:39:40.154Z,100.00
2023-02-12T00:42:06.540Z,100.00
2023-02-12T00:44:33.070Z,100.00
2023-02-12T00:47:02.388Z,100.00
2023-02-12T00:49:29.425Z,100.00
2023-02-12T00:51:55.908Z,100.00
2023-02-12T00:54:22.359Z,100.00
2023-02-12T00:56:48.825Z,100.00
2023-02-12T00:59:15.332Z,100.00
2023-02-12T01:01:41.858Z,100.00
2023-02-12T01:04:08.417Z,100.00
2023-02-12T01:06:35.033Z,100.00
2023-02-12T01:09:02.068Z,100.00
2023-02-12T01:11:28.590Z,100.00
2023-02-12T01:13:56.444Z,100.00
2023-02-12T01:16:23.418Z,100.00
2023-02-12T01:18:51.769Z,100.00
2023-02-12T01:21:20.085Z,100.00
2023-02-12T01:23:46.641Z,100.00
2023-02-12T01:26:13.279Z,100.00
2023-02-12T01:28:40.026Z,100.00
2023-02-12T01:31:10.684Z,100.00
2023-02-12T01:33:37.274Z,100.00
2023-02-12T01:36:03.912Z,100.00
2023-02-12T01:38:30.407Z,100.00
2023-02-12T01:41:06.608Z,100.00
2023-02-12T01:43:36.331Z,100.00
2023-02-12T01:46:02.997Z,100.00
2023-02-12T01:48:31.279Z,100.00
2023-02-12T01:50:57.742Z,100.00
2023-02-12T01:53:24.498Z,100.00
2023-02-12T01:55:51.867Z,100.00
2023-02-12T01:58:18.423Z,100.00
2023-02-12T02:00:44.962Z,100.00
2023-02-12T02:03:11.473Z,100.00
2023-02-12T02:05:47.249Z,100.00
2023-02-12T02:08:13.726Z,100.00
2023-02-12T02:10:40.214Z,100.00
2023-02-12T02:13:25.529Z,100.00
2023-02-12T02:15:52.633Z,100.00
2023-02-12T02:18:24.180Z,100.00
2023-02-12T02:20:55.624Z,100.00
2023-02-12T02:23:28.134Z,100.00
2023-02-12T02:26:13.363Z,100.00
2023-02-12T02:28:39.778Z,100.00
2023-02-12T02:31:18.647Z,100.00
2023-02-12T02:33:54.545Z,100.00
2023-02-12T02:36:26.002Z,100.00
2023-02-12T02:38:57.419Z,100.00
2023-02-12T02:41:39.220Z,100.00
2023-02-12T02:44:08.365Z,100.00
2023-02-12T02:46:38.400Z,100.00
2023-02-12T02:49:05.941Z,100.00
2023-02-12T02:51:33.943Z,100.00
2023-02-12T02:54:06.649Z,100.00
2023-02-12T02:56:33.339Z,100.00
2023-02-12T02:59:01.688Z,100.00
2023-02-12T03:01:32.846Z,100.00
2023-02-12T03:04:09.437Z,100.00
2023-02-12T03:06:55.267Z,100.00
2023-02-12T03:09:21.846Z,100.00
2023-02-12T03:11:48.482Z,100.00
2023-02-12T03:14:15.137Z,100.00
2023-02-12T03:16:43.939Z,100.00
2023-02-12T03:19:17.630Z,100.00
2023-02-12T03:21:45.930Z,100.00
2023-02-12T03:24:15.448Z,100.00
2023-02-12T03:26:53.046Z,100.00
2023-02-12T03:29:19.659Z,100.00
2023-02-12T03:32:09.221Z,100.00
2023-02-12T03:34:50.471Z,100.00
2023-02-12T03:37:22.643Z,100.00
2023-02-12T03:40:06.017Z,100.00
2023-02-12T03:42:35.306Z,100.00
2023-02-12T03:45:09.680Z,100.00
2023-02-12T03:47:39.525Z,100.00
2023-02-12T03:50:15.187Z,100.00
2023-02-12T03:52:41.709Z,100.00
2023-02-12T03:55:08.455Z,100.00
2023-02-12T03:57:37.818Z,100.00
2023-02-12T04:00:09.521Z,100.00
2023-02-12T04:02:35.979Z,100.00
2023-02-12T04:05:06.793Z,100.00
2023-02-12T04:07:33.601Z,100.00
2023-02-12T04:10:00.234Z,100.00
2023-02-12T04:12:32.044Z,100.00
2023-02-12T04:15:13.124Z,100.00
2023-02-12T04:18:00.304Z,100.00
2023-02-12T04:20:28.867Z,100.00
2023-02-12T04:23:00.849Z,100.00
2023-02-12T04:25:46.481Z,100.00
2023-02-12T04:28:16.912Z,100.00
2023-02-12T04:30:46.068Z,100.00
2023-02-12T04:33:13.606Z,100.00
2023-02-12T04:35:44.308Z,100.00
2023-02-12T04:38:15.572Z,100.00
2023-02-12T04:40:42.079Z,100.00
2023-02-12T04:43:08.753Z,100.00
2023-02-12T04:45:35.483Z,100.00
2023-02-12T04:48:02.146Z,100.00
2023-02-12T04:50:29.123Z,100.00
2023-02-12T04:52:55.573Z,100.00
2023-02-12T04:55:22.008Z,100.00
2023-02-12T04:57:48.420Z,100.00
2023-02-12T05:00:15.194Z,100.00
2023-02-12T05:02:41.768Z,100.00
2023-02-12T05:05:08.432Z,100.00
2023-02-12T05:07:34.912Z,100.00
2023-02-12T05:10:01.403Z,100.00
2023-02-12T05:12:27.837Z,100.00
2023-02-12T05:14:54.314Z,100.00
2023-02-12T05:17:22.457Z,100.00
2023-02-12T05:19:48.969Z,100.00
2023-02-12T05:22:15.476Z,100.00
2023-02-12T05:24:42.166Z,100.00
2023-02-12T05:27:09.433Z,100.00
2023-02-12T05:29:36.391Z,100.00
2023-02-12T05:32:03.091Z,100.00
2023-02-12T05:34:29.649Z,100.00
2023-02-12T05:36:56.080Z,100.00
2023-02-12T05:39:22.763Z,100.00
2023-02-12T05:41:49.184Z,100.00
2023-02-12T05:44:15.887Z,100.00
2023-02-12T05:46:42.514Z,100.00
2023-02-12T05:49:09.241Z,100.00
2023-02-12T05:51:35.707Z,100.00
2023-02-12T05:54:03.790Z,100.00
2023-02-12T05:56:31.090Z,100.00
2023-02-12T05:59:02.439Z,100.00
2023-02-12T06:01:35.908Z,100.00
2023-02-12T06:04:03.195Z,100.00
2023-02-12T06:06:29.996Z,100.00
2023-02-12T06:08:56.507Z,100.00
2023-02-12T06:11:22.987Z,100.00
2023-02-12T06:13:49.456Z,100.00
2023-02-12T06:16:22.674Z,100.00
2023-02-12T06:18:49.395Z,100.00
2023-02-12T06:21:16.216Z,100.00
2023-02-12T06:23:42.787Z,100.00
2023-02-12T06:26:09.380Z,100.00
2023-02-12T06:28:35.882Z,100.00
2023-02-12T06:31:02.524Z,100.00
2023-02-12T06:33:29.128Z,100.00
2023-02-12T06:35:56.014Z,100.00
2023-02-12T06:38:22.805Z,100.00
2023-02-12T06:40:49.315Z,100.00
2023-02-12T06:43:15.796Z,100.00
2023-02-12T06:45:42.338Z,100.00
2023-02-12T06:48:08.860Z,100.00
2023-02-12T06:50:35.389Z,100.00
2023-02-12T06:53:01.983Z,100.00
2023-02-12T06:55:28.419Z,100.00
2023-02-12T06:57:55.522Z,100.00
2023-02-12T07:00:22.231Z,100.00
2023-02-12T07:02:52.555Z,100.00
2023-02-12T07:05:19.053Z,100.00
2023-02-12T07:07:45.529Z,100.00
2023-02-12T07:10:11.992Z,100.00
2023-02-12T07:12:38.480Z,100.00
2023-02-12T07:15:05.189Z,100.00
2023-02-12T07:17:31.640Z,100.00
2023-02-12T07:19:58.220Z,100.00
2023-02-12T07:22:24.711Z,100.00
2023-02-12T07:24:51.972Z,100.00
2023-02-12T07:27:18.569Z,100.00
2023-02-12T07:29:45.001Z,100.00
2023-02-12T07:32:11.550Z,100.00
2023-02-12T07:34:38.001Z,100.00
2023-02-12T07:37:04.445Z,100.00
2023-02-12T07:39:31.057Z,100.00
2023-02-12T07:41:58.115Z,100.00
2023-02-12T07:44:24.560Z,100.00
2023-02-12T07:46:51.077Z,100.00
2023-02-12T07:49:18.399Z,100.00
2023-02-12T07:51:45.213Z,100.00
2023-02-12T07:54:11.809Z,100.00
2023-02-12T07:56:39.073Z,100.00
2023-02-12T07:59:06.597Z,100.00
2023-02-12T08:01:33.810Z,100.00
2023-02-12T08:04:01.258Z,100.00
2023-02-12T08:06:28.583Z,100.00
2023-02-12T08:08:55.501Z,100.00
2023-02-12T08:11:22.045Z,100.00
2023-02-12T08:13:48.643Z,100.00
2023-02-12T08:16:16.012Z,100.00
2023-02-12T08:18:42.696Z,100.00
2023-02-12T08:21:10.059Z,100.00
2023-02-12T08:23:36.543Z,100.00
2023-02-12T08:26:09.111Z,100.00
2023-02-12T08:28:36.050Z,100.00
2023-02-12T08:31:03.302Z,100.00
2023-02-12T08:33:29.829Z,100.00
2023-02-12T08:36:03.205Z,100.00
2023-02-12T08:38:29.865Z,100.00
2023-02-12T08:40:56.392Z,100.00
2023-02-12T08:43:22.926Z,100.00
2023-02-12T08:45:49.474Z,100.00
2023-02-12T08:48:15.961Z,100.00
2023-02-12T08:50:42.530Z,100.00
2023-02-12T08:53:09.811Z,100.00
2023-02-12T08:55:36.246Z,80.45
2023-02-12T08:58:03.945Z,68.28
2023-02-12T09:00:30.638Z,66.88
2023-02-12T09:02:57.083Z,67.75
2023-02-12T09:05:23.569Z,65.15
2023-02-12T09:10:16.597Z,67.00
2023-02-12T09:12:43.082Z,100.00
2023-02-12T09:15:09.627Z,68.74
2023-02-12T09:17:36.116Z,69.37
2023-02-12T09:20:02.787Z,69.65
2023-02-12T09:22:29.270Z,70.26
2023-02-12T09:24:55.727Z,70.27
2023-02-12T09:27:22.199Z,70.11
2023-02-12T09:29:48.622Z,69.80
2023-02-12T09:32:15.056Z,70.45
2023-02-12T09:34:41.590Z,69.47
2023-02-12T09:37:08.042Z,69.79
2023-02-12T09:39:34.523Z,70.55
2023-02-12T09:42:04.291Z,70.61
2023-02-12T09:44:39.868Z,71.76
2023-02-12T09:47:09.276Z,71.29
2023-02-12T09:49:54.531Z,69.86
2023-02-12T09:52:26.699Z,69.21
2023-02-12T09:54:53.214Z,68.83
2023-02-12T09:57:20.546Z,68.73
2023-02-12T09:59:48.772Z,66.35
2023-02-12T10:02:16.145Z,64.79
2023-02-12T10:04:59.799Z,64.99
2023-02-12T10:07:50.248Z,64.11
2023-02-12T10:10:31.734Z,63.78
2023-02-12T10:13:05.169Z,63.59
2023-02-12T10:15:55.146Z,63.47
2023-02-12T10:18:25.014Z,63.13
2023-02-12T10:20:57.829Z,63.32
2023-02-12T10:23:57.502Z,64.05
2023-02-12T10:26:26.047Z,64.47
2023-02-12T10:28:52.533Z,64.95
2023-02-12T10:31:29.361Z,64.97
2023-02-12T10:33:57.198Z,65.28
2023-02-12T10:36:26.827Z,65.50
2023-02-12T10:38:58.443Z,65.39
2023-02-12T10:41:24.882Z,65.93
2023-02-12T10:43:51.668Z,64.74
2023-02-12T10:46:18.209Z,62.47
2023-02-12T10:48:45.746Z,63.03
2023-02-12T10:51:12.871Z,63.30
2023-02-12T10:53:40.324Z,63.80
2023-02-12T10:56:13.035Z,64.27
2023-02-12T10:58:40.097Z,64.67
2023-02-12T11:01:06.645Z,65.04
2023-02-12T11:03:38.422Z,65.12
2023-02-12T11:06:17.338Z,65.81
2023-02-12T11:08:43.889Z,65.57
2023-02-12T11:11:20.564Z,65.79
2023-02-12T11:13:49.205Z,65.63
2023-02-12T11:16:17.711Z,66.22
2023-02-12T11:18:44.216Z,66.48
2023-02-12T11:21:11.345Z,66.34
2023-02-12T11:23:41.585Z,66.09
2023-02-12T11:26:14.195Z,66.41
2023-02-12T11:28:40.786Z,66.59
2023-02-12T11:31:10.459Z,66.90
2023-02-12T11:33:37.163Z,67.46
2023-02-12T11:36:06.752Z,67.06
2023-02-12T11:38:34.790Z,66.24
2023-02-12T11:41:08.674Z,66.78
2023-02-12T11:43:37.313Z,66.97
2023-02-12T11:46:04.295Z,66.90
2023-02-12T11:48:32.445Z,66.77
2023-02-12T11:50:59.622Z,67.20
2023-02-12T11:53:30.545Z,66.67
2023-02-12T11:56:04.868Z,67.00
2023-02-12T11:58:31.501Z,67.00
2023-02-12T12:01:13.337Z,67.22
2023-02-12T12:03:52.129Z,67.25
2023-02-12T12:06:28.127Z,67.41
2023-02-12T12:08:57.017Z,68.13
2023-02-12T12:11:33.094Z,68.36
2023-02-12T12:14:01.754Z,68.67
2023-02-12T12:17:07.772Z,68.41
2023-02-12T12:19:54.295Z,68.89
2023-02-12T12:22:26.865Z,68.33
2023-02-12T12:24:54.084Z,69.01
2023-02-12T12:27:42.432Z,68.76
2023-02-12T12:30:13.010Z,69.16
2023-02-12T12:32:39.489Z,69.53
2023-02-12T12:35:09.407Z,69.40
2023-02-12T12:37:41.127Z,69.83
2023-02-12T12:40:46.259Z,70.18
2023-02-12T12:43:21.897Z,70.46
2023-02-12T12:45:51.346Z,69.70
2023-02-12T12:48:17.797Z,69.78
2023-02-12T12:50:56.579Z,69.49
2023-02-12T12:54:01.620Z,68.80
2023-02-12T12:56:33.895Z,68.15
2023-02-12T12:59:18.754Z,67.90
2023-02-12T13:01:51.399Z,67.70
2023-02-12T13:04:36.739Z,68.13
2023-02-12T13:07:12.677Z,67.76
2023-02-12T13:09:46.332Z,67.14
2023-02-12T13:12:19.010Z,67.32
2023-02-12T13:14:47.783Z,66.91
2023-02-12T13:17:17.528Z,66.81
2023-02-12T13:19:50.081Z,66.99
2023-02-12T13:22:28.735Z,67.68
2023-02-12T13:25:01.251Z,67.63
2023-02-12T13:27:37.778Z,67.66
2023-02-12T13:30:05.387Z,68.46
2023-02-12T13:32:36.439Z,68.40
2023-02-12T13:35:02.951Z,68.60
2023-02-12T13:37:35.316Z,69.05
2023-02-12T13:40:03.347Z,69.33
2023-02-12T13:42:29.780Z,69.91
2023-02-12T13:44:56.603Z,69.61
2023-02-12T13:47:25.900Z,70.33
2023-02-12T13:49:58.693Z,69.88
2023-02-12T13:52:25.185Z,70.09
2023-02-12T13:54:57.097Z,70.25
2023-02-12T13:57:24.770Z,69.78
2023-02-12T13:59:53.779Z,70.21
2023-02-12T14:02:29.639Z,70.18
2023-02-12T14:05:02.622Z,69.80
2023-02-12T14:07:45.645Z,70.51
2023-02-12T14:10:32.356Z,70.45
2023-02-12T14:13:08.890Z,69.59
2023-02-12T14:15:36.476Z,69.20
2023-02-12T14:18:06.370Z,70.05
2023-02-12T14:20:33.526Z,69.07
2023-02-12T14:22:59.977Z,69.20
2023-02-12T14:25:34.293Z,69.47
2023-02-12T14:28:00.790Z,68.49
2023-02-12T14:30:40.501Z,68.45
2023-02-12T14:33:06.967Z,68.49
2023-02-12T14:35:33.692Z,68.67
2023-02-12T14:38:00.867Z,68.64
2023-02-12T14:40:33.450Z,68.73
2023-02-12T14:43:00.639Z,68.30
2023-02-12T14:45:28.088Z,68.02
2023-02-12T14:47:54.530Z,67.93
2023-02-12T14:50:29.355Z,68.20
2023-02-12T14:52:58.975Z,67.47
2023-02-12T14:55:30.464Z,67.78
2023-02-12T14:58:06.788Z,67.18
2023-02-12T15:00:42.297Z,67.24
2023-02-12T15:03:15.205Z,68.06
2023-02-12T15:06:00.268Z,68.06
2023-02-12T15:08:36.356Z,68.96
2023-02-12T15:11:21.684Z,68.62
2023-02-12T15:13:49.238Z,68.90
2023-02-12T15:16:27.806Z,69.75
2023-02-12T15:18:59.570Z,69.32
2023-02-12T15:21:27.737Z,69.98
2023-02-12T15:23:58.278Z,69.88
2023-02-12T15:26:24.800Z,70.16
2023-02-12T15:28:51.935Z,70.36
2023-02-12T15:31:19.700Z,71.07
2023-02-12T15:33:47.290Z,70.67
2023-02-12T15:36:16.495Z,71.28
2023-02-12T15:38:43.734Z,71.55
2023-02-12T15:41:23.265Z,71.21
2023-02-12T15:43:50.163Z,72.08
2023-02-12T15:46:16.999Z,71.83
2023-02-12T15:48:44.016Z,71.86
2023-02-12T15:51:26.563Z,72.24
2023-02-12T15:53:53.117Z,72.25
2023-02-12T15:56:21.056Z,72.24
2023-02-12T15:58:48.989Z,72.06
2023-02-12T16:01:19.326Z,72.51
2023-02-12T16:03:48.879Z,71.82
2023-02-12T16:06:16.849Z,72.40
2023-02-12T16:08:44.341Z,73.15
2023-02-12T16:11:16.812Z,72.61
2023-02-12T16:13:44.138Z,72.85
2023-02-12T16:16:13.616Z,72.72
2023-02-12T16:18:40.879Z,72.95
2023-02-12T16:21:17.781Z,73.04
2023-02-12T16:23:48.409Z,73.15
2023-02-12T16:26:18.375Z,73.96
2023-02-12T16:28:48.711Z,73.59
2023-02-12T16:31:15.628Z,73.73
2023-02-12T16:33:48.601Z,73.58
2023-02-12T16:36:27.585Z,73.85
2023-02-12T16:38:54.633Z,74.09
2023-02-12T16:41:21.130Z,74.07
2023-02-12T16:43:48.214Z,74.62
2023-02-12T16:46:14.912Z,74.30
2023-02-12T16:48:42.380Z,74.50
2023-02-12T16:51:25.034Z,74.70
2023-02-12T16:53:53.972Z,74.58
2023-02-12T16:56:21.252Z,75.44
2023-02-12T16:59:05.837Z,74.95
2023-02-12T17:01:33.523Z,75.68
2023-02-12T17:04:00.341Z,76.27
2023-02-12T17:06:30.456Z,76.22
2023-02-12T17:08:57.237Z,76.26
2023-02-12T17:11:24.356Z,76.66
2023-02-12T17:13:51.565Z,76.80
2023-02-12T17:16:29.847Z,76.43
2023-02-12T17:18:57.547Z,76.42
2023-02-12T17:21:24.941Z,76.93
2023-02-12T17:23:51.460Z,77.57
2023-02-12T17:26:17.958Z,77.69
2023-02-12T17:28:44.531Z,77.53
2023-02-12T17:31:11.207Z,77.38
2023-02-12T17:33:37.805Z,77.14
2023-02-12T17:36:04.490Z,77.92
2023-02-12T17:38:31.065Z,79.00
2023-02-12T17:40:58.247Z,78.74
2023-02-12T17:43:24.960Z,78.61
2023-02-12T17:45:53.275Z,78.46
2023-02-12T17:48:22.758Z,78.28
2023-02-12T17:50:53.248Z,78.35
2023-02-12T17:53:19.714Z,78.24
2023-02-12T17:55:46.148Z,78.43
2023-02-12T17:58:12.617Z,78.35
2023-02-12T18:00:40.397Z,78.35
2023-02-12T18:03:06.860Z,78.19
2023-02-12T18:05:33.319Z,78.20
2023-02-12T18:07:59.803Z,78.03
2023-02-12T18:10:26.346Z,77.95
2023-02-12T18:12:52.818Z,78.18
2023-02-12T18:15:21.200Z,77.80
2023-02-12T18:17:47.753Z,77.80
2023-02-12T18:20:14.248Z,77.74
2023-02-12T18:22:40.751Z,77.85
2023-02-12T18:25:07.539Z,78.00
2023-02-12T18:27:34.097Z,78.39
2023-02-12T18:30:00.622Z,78.13
2023-02-12T18:32:27.363Z,78.25
2023-02-12T18:34:53.867Z,78.14
2023-02-12T18:37:20.303Z,77.95
2023-02-12T18:39:46.873Z,77.98
2023-02-12T18:42:13.349Z,78.40
2023-02-12T18:44:39.808Z,78.14
2023-02-12T18:47:06.266Z,78.21
2023-02-12T18:49:32.782Z,78.29
2023-02-12T18:51:59.303Z,78.43
2023-02-12T18:54:25.745Z,78.32
2023-02-12T18:56:52.517Z,78.17
2023-02-12T18:59:19.129Z,78.08
2023-02-12T19:01:46.445Z,78.35
2023-02-12T19:04:13.317Z,78.53
2023-02-12T19:06:40.792Z,78.43
2023-02-12T19:09:07.388Z,78.80
2023-02-12T19:11:33.845Z,78.94
2023-02-12T19:14:00.355Z,78.75
2023-02-12T19:16:27.066Z,78.97
2023-02-12T19:18:58.509Z,78.99
2023-02-12T19:21:26.405Z,78.81
2023-02-12T19:23:53.914Z,78.67
2023-02-12T19:26:20.404Z,78.07
2023-02-12T19:28:46.860Z,78.20
2023-02-12T19:31:15.440Z,78.33
2023-02-12T19:33:42.384Z,78.44
2023-02-12T19:36:09.518Z,78.27
2023-02-12T19:38:36.113Z,78.14
2023-02-12T19:41:03.987Z,77.80
2023-02-12T19:43:30.731Z,77.88
2023-02-12T19:46:07.127Z,78.08
2023-02-12T19:48:33.683Z,78.34
2023-02-12T19:51:00.399Z,78.32
2023-02-12T19:53:26.890Z,78.21
2023-02-12T19:55:53.306Z,78.56
2023-02-12T19:58:19.748Z,79.16
2023-02-12T20:00:46.261Z,78.94
2023-02-12T20:03:13.850Z,78.94
2023-02-12T20:05:46.439Z,78.62
2023-02-12T20:08:13.492Z,78.77
2023-02-12T20:10:40.430Z,79.08
2023-02-12T20:13:06.945Z,78.98
2023-02-12T20:15:34.416Z,79.14
2023-02-12T20:18:00.846Z,78.96
2023-02-12T20:20:27.296Z,79.14
2023-02-12T20:22:53.722Z,79.36
2023-02-12T20:25:20.165Z,79.76
2023-02-12T20:27:46.739Z,79.64
2023-02-12T20:30:13.434Z,79.43
2023-02-12T20:32:40.725Z,78.95
2023-02-12T20:35:07.269Z,79.02
2023-02-12T20:37:33.816Z,78.98
2023-02-12T20:40:00.480Z,78.63
2023-02-12T20:42:27.169Z,78.70
2023-02-12T20:44:53.672Z,78.65
2023-02-12T20:47:20.502Z,78.64
2023-02-12T20:49:46.989Z,78.34
2023-02-12T20:52:13.574Z,78.45
2023-02-12T20:54:40.165Z,78.38
2023-02-12T20:57:07.636Z,78.52
2023-02-12T20:59:34.078Z,78.24
2023-02-12T21:02:01.036Z,78.42
2023-02-12T21:04:29.328Z,78.38
2023-02-12T21:06:58.262Z,78.31
2023-02-12T21:09:24.754Z,78.78
2023-02-12T21:11:51.204Z,78.63
2023-02-12T21:14:22.277Z,78.98
2023-02-12T21:16:49.950Z,79.34
2023-02-12T21:19:16.458Z,79.55
2023-02-12T21:21:45.165Z,79.36
2023-02-12T21:24:13.018Z,79.14
2023-02-12T21:26:39.570Z,79.34
2023-02-12T21:29:05.986Z,79.65
2023-02-12T21:31:33.456Z,79.43
2023-02-12T21:34:00.554Z,79.15
2023-02-12T21:36:28.043Z,79.26
2023-02-12T21:38:54.588Z,79.05
2023-02-12T21:41:24.044Z,79.33
2023-02-12T21:43:54.463Z,79.37
2023-02-12T21:46:22.502Z,79.32
2023-02-12T21:48:52.207Z,79.11
2023-02-12T21:51:58.109Z,79.18
2023-02-12T21:54:24.685Z,78.91
2023-02-12T21:56:51.250Z,79.06
2023-02-12T21:59:36.975Z,79.14
2023-02-12T22:02:03.584Z,78.88
2023-02-12T22:04:30.043Z,78.97
2023-02-12T22:06:58.103Z,78.95
2023-02-12T22:09:24.679Z,78.92
2023-02-12T22:11:52.342Z,79.12
2023-02-12T22:14:19.141Z,79.05
2023-02-12T22:16:45.841Z,79.36
2023-02-12T22:19:12.470Z,79.51
2023-02-12T22:21:40.250Z,79.37
2023-02-12T22:24:07.204Z,79.52
2023-02-12T22:26:33.720Z,79.50
2023-02-12T22:29:01.762Z,79.26
2023-02-12T22:31:29.435Z,79.25
2023-02-12T22:33:56.959Z,79.13
2023-02-12T22:36:25.199Z,79.41
2023-02-12T22:38:55.453Z,79.33
2023-02-12T22:41:21.897Z,79.37
2023-02-12T22:43:48.483Z,79.29
2023-02-12T22:46:15.175Z,79.30
2023-02-12T22:48:41.594Z,79.17
2023-02-12T22:51:11.805Z,79.35
2023-02-12T22:53:38.362Z,79.36
2023-02-12T22:56:05.452Z,79.30
2023-02-12T22:58:32.666Z,79.26
2023-02-12T23:00:59.489Z,79.25
2023-02-12T23:03:26.159Z,79.25
2023-02-12T23:05:52.621Z,79.18
2023-02-12T23:08:19.130Z,79.08
2023-02-12T23:10:45.557Z,79.06
2023-02-12T23:13:21.315Z,79.07
2023-02-12T23:15:55.385Z,78.98
2023-02-12T23:18:22.506Z,79.14
2023-02-12T23:20:49.373Z,79.09
2023-02-12T23:23:15.946Z,79.15
2023-02-12T23:25:42.416Z,79.15
2023-02-12T23:28:08.891Z,79.12
2023-02-12T23:30:35.375Z,78.80
2023-02-12T23:33:01.875Z,78.73
2023-02-12T23:35:28.359Z,78.96
2023-02-12T23:37:54.838Z,78.67
2023-02-12T23:40:21.324Z,78.85
2023-02-12T23:42:47.873Z,78.59
2023-02-12T23:45:14.410Z,78.59
2023-02-12T23:47:40.857Z,78.86
2023-02-12T23:50:07.516Z,78.95
2023-02-12T23:52:34.155Z,79.00
2023-02-12T23:55:00.621Z,78.95
2023-02-12T23:57:27.059Z,79.04
2023-02-12T23:59:54.691Z,78.96
